Tribune, Canada
Current Conditions -  °F | °C
As of 5:15 PM on Friday 24 Oct 2014 (Local Time) from KD50 Reporting Station
Clear Clear  
Wind Chill: 55°   Ceiling: Unl
Heat Index: 55°   Visibility: 10mi
Dew Point: 28°   Wind: 14mph
Humidity: 36%   Direction: 280°W
Pressure: 29.93"   Gusts: NA
Location:  49.25°N, 103.82°W
Report Text: KD50 242315Z AUTO 28012KT 10SM CLR 13/M02 A2993 RMK AO2
Loading
Personal Weather Stations






























Interactive Weather Map New forecast layout! Learn more

10-Day Weather Forecast

Advertisements
Track Severe Weather on mobile